Historyczne dane pomiarowe

Dodano dane terminowe – wersja testowa.

Dane z okresu 1951-2019

Wersja bazy: 1.34 [2019-03-16, lista zmian], aktualizacja planowana na 2019-04-15

Dane meteo z obszaru Polski uzyskane na podstawie danych udostępnionych przez Instytut Meteorologii i Gospodarki Wodnej – Państwowy Instytut Badawczy.

 

Wybierz Datę:    

       

TemperaturaWilgotnośćWiatrCiśnienieOpadyŚniegCzas trwania zjawisk
 Stacja t tx tn tng RH VA  wxwx mslp ppp RRR   cm mm wxwxwxwxwxwxwx
1961-08-14 14.4 20.3 9.4- 83.3- 3.7 1.3---- 0.0------------
1961-08-13 13.5 18.3 12.2- 94.0- 8.0 2.3---- 11.5------------
1961-08-12 19.3 24.2 16.8- 88.0- 6.3 1.3---- 14.4------------
1961-08-11 25.4 33.8 20.1- 76.3- 3.0 5.0---- 0.0------------
1961-08-10 22.7 28.1 18.8- 89.0- 2.7 2.3---- 0.0------------
1961-08-09 22.3 30.0 14.8- 78.8- 0.3 1.0---- 9.8------------
1961-08-08 19.1 23.3 17.2- 75.3- 6.7 1.3---- 1.6------------
1961-08-07 24.4 31.3 17.8- 62.5- 0.7 3.3---- 0.0------------
1961-08-06 23.1 30.2 13.9- 64.3- 0.3 2.0---- 0.0------------
1961-08-05 17.9 23.2 13.7- 78.3- 3.3 1.3---- 0.0------------
1961-08-04 16.7 22.1 12.3- 75.5- 4.7 1.3---- 0.0------------
1961-08-03 18.5 27.0 11.5- 80.5- 3.3 2.3---- 5.4------------
1961-08-02 19.0 26.0 9.8- 69.5- 0.0 1.3---- 0.0------------
1961-08-01 16.3 21.3 11.3- 72.3- 3.7 3.7---- 0.0------------
1961-07-31 14.1 19.5 11.9- 87.0- 4.7 4.0---- 0.1------------
1961-07-30 14.2 19.3 12.1- 97.0- 8.0 2.7---- 12.9------------
1961-07-29 16.1 21.2 13.1- 89.3- 5.7 2.7---- 24.0------------
1961-07-28 20.9 28.0 16.6- 80.5- 5.7 2.3---- 0.9------------
1961-07-27 21.6 27.0 12.7- 61.8- 5.7 4.3---- 0.2------------
1961-07-26 16.2 21.0 12.0- 68.5- 7.0 2.7---- 0.0------------
1961-07-25 14.9 19.3 11.5- 74.0- 7.3 2.3---- 0.0------------
1961-07-24 14.9 20.7 10.1- 78.5- 5.7 1.7---- 0.0------------
1961-07-23 16.1 21.7 10.7- 78.0- 1.3 2.0---- 0.0------------
1961-07-22 14.3 19.1 11.7- 85.8- 5.0 2.7---- 6.5------------
1961-07-21 15.3 21.7 12.7- 81.3- 5.7 2.7---- 1.6------------
1961-07-20 16.3 23.0 8.9- 82.5- 5.0 2.0---- 16.8------------
1961-07-19 15.9 23.5 9.0- 79.3- 2.7 0.3---- 8.0------------
1961-07-18 15.4 21.3 10.1- 73.3- 1.7 1.3---- 0.0------------
1961-07-17 16.5 28.1 10.3- 80.5- 4.7 1.7---- 2.0------------
1961-07-16 18.5 26.1 12.0- 73.5- 2.7 2.3---- 0.0------------
1961-07-15 18.6 26.0 9.0- 73.8- 3.0 1.7---- 2.0------------
1961-07-14 14.9 23.7 13.5- 83.5- 4.0 2.7---- 0.0------------
1961-07-13 23.8 29.5 13.8- 59.5- 2.7 3.0---- 0.5------------
1961-07-12 19.7 27.6 11.6- 68.8- 4.7 1.7---- 0.8------------
1961-07-11 16.2 21.7 9.6- 62.0- 6.3 2.3---- 0.0------------
1961-07-10 14.3 20.8 11.3- 81.0- 6.0 2.7---- 0.6------------
1961-07-09 16.6 24.2 7.1- 71.8- 4.7 2.3---- 0.4------------
1961-07-08 14.7 20.8 7.7- 68.8- 1.3 1.3---- 0.0------------
1961-07-07 14.1 19.7 8.4- 72.3- 1.7 1.7---- 0.0------------
1961-07-06 13.6 18.9 10.5- 70.8- 2.3 2.3---- 0.0------------
1961-07-05 16.0 20.5 14.5- 79.5- 7.3 2.7---- 2.0------------
1961-07-04 22.4 32.0 15.8- 71.5- 2.7 2.3---- 11.2------------
1961-07-03 23.4 31.0 12.5- 59.8- 0.0 1.3---- 0.0------------
1961-07-02 20.8 28.2 10.7- 66.8- 0.0 1.0---- 0.0------------
1961-07-01 19.7 26.1 11.9- 65.3- 0.3 1.7---- 0.0------------
1961-06-30 17.8 23.5 9.4- 74.0- 3.0 1.3---- 0.0------------
1961-06-29 15.2 20.5 7.7- 74.5- 5.3 1.7---- 0.0------------
1961-06-28 15.7 24.9 12.5- 83.3- 2.7 2.0---- 2.9------------
1961-06-27 25.4 32.7 15.6- 56.3- 1.7 2.0---- 2.6------------
1961-06-26 22.2 32.1 16.2- 72.5- 3.0 1.7---- 1.5------------
1961-06-25 22.5 29.2 10.9- 61.0- 0.7 2.0---- 0.0------------
1961-06-24 18.8 25.4 11.3- 66.5- 1.7 1.3---- 0.0------------
1961-06-23 17.2 22.5 11.9- 81.8- 6.0 1.7---- 1.4------------
1961-06-22 16.8 23.0 10.3- 66.0- 0.7 1.7---- 0.0------------
1961-06-21 17.4 23.4 6.5- 63.5- 0.0 0.7---- 0.0------------
1961-06-20 15.3 20.9 10.7- 61.5- 1.3 2.3---- 0.0------------
1961-06-19 21.0 27.7 14.0- 76.5- 4.0 2.0---- 0.1------------
1961-06-18 19.2 26.2 9.5- 64.5- 2.3 1.0---- 0.0------------
1961-06-17 16.4 22.1 8.6- 64.0- 2.3 1.7---- 0.0------------
1961-06-16 13.6 18.0 7.2- 78.5- 2.7 1.0---- 0.0------------
1385.6 ms

 

Źródłem pochodzenia danych jest Instytut Meteorologii i Gospodarki Wodnej – Państwowy Instytut Badawczy. Dane Instytutu Meteorologii i Gospodarki Wodnej – Państwowego Instytutu Badawczego zostały przetworzone.

Dane źródłowe można odnaleźć na stronie https://dane.imgw.pl